sensor_id;sensor_type;location;lat;lon;timestamp;temperature;humidity
44305;DHT22;30019;50.576;8.568;2023-02-26T00:02:24;-1.20;99.90
44305;DHT22;30019;50.576;8.568;2023-02-26T00:04:50;-1.10;99.90
44305;DHT22;30019;50.576;8.568;2023-02-26T00:07:15;-1.00;99.90
44305;DHT22;30019;50.576;8.568;2023-02-26T00:09:41;-0.80;99.90
44305;DHT22;30019;50.576;8.568;2023-02-26T00:12:09;-0.70;99.90
44305;DHT22;30019;50.576;8.568;2023-02-26T00:14:35;-0.60;99.90
44305;DHT22;30019;50.576;8.568;2023-02-26T00:19:45;-0.70;99.90
44305;DHT22;30019;50.576;8.568;2023-02-26T00:22:11;-0.60;99.90
44305;DHT22;30019;50.576;8.568;2023-02-26T00:24:36;-0.60;99.90
44305;DHT22;30019;50.576;8.568;2023-02-26T00:27:02;-0.60;99.90
44305;DHT22;30019;50.576;8.568;2023-02-26T00:29:28;-0.60;99.90
44305;DHT22;30019;50.576;8.568;2023-02-26T00:31:53;-0.60;99.90
44305;DHT22;30019;50.576;8.568;2023-02-26T00:34:19;-0.60;99.90
44305;DHT22;30019;50.576;8.568;2023-02-26T00:36:51;-0.40;99.90
44305;DHT22;30019;50.576;8.568;2023-02-26T00:42:11;-0.20;99.90
44305;DHT22;30019;50.576;8.568;2023-02-26T00:44:38;-0.20;99.90
44305;DHT22;30019;50.576;8.568;2023-02-26T00:47:08;-0.20;99.90
44305;DHT22;30019;50.576;8.568;2023-02-26T00:50:08;-0.20;99.90
44305;DHT22;30019;50.576;8.568;2023-02-26T00:55:02;-0.10;99.90
44305;DHT22;30019;50.576;8.568;2023-02-26T00:57:28;-0.20;99.90
44305;DHT22;30019;50.576;8.568;2023-02-26T00:59:53;-0.30;99.90
44305;DHT22;30019;50.576;8.568;2023-02-26T01:02:19;-0.40;99.90
44305;DHT22;30019;50.576;8.568;2023-02-26T01:04:44;-0.40;99.90
44305;DHT22;30019;50.576;8.568;2023-02-26T01:07:11;-0.40;99.90
44305;DHT22;30019;50.576;8.568;2023-02-26T01:09:37;-0.40;99.90
44305;DHT22;30019;50.576;8.568;2023-02-26T01:12:09;-0.50;99.90
44305;DHT22;30019;50.576;8.568;2023-02-26T01:14:37;-0.50;99.90
44305;DHT22;30019;50.576;8.568;2023-02-26T01:19:46;-0.60;99.90
44305;DHT22;30019;50.576;8.568;2023-02-26T01:22:26;-0.80;99.90
44305;DHT22;30019;50.576;8.568;2023-02-26T01:25:00;-0.80;99.90
44305;DHT22;30019;50.576;8.568;2023-02-26T01:27:27;-0.90;99.90
44305;DHT22;30019;50.576;8.568;2023-02-26T01:29:52;-0.90;99.90
44305;DHT22;30019;50.576;8.568;2023-02-26T01:32:24;-0.90;99.90
44305;DHT22;30019;50.576;8.568;2023-02-26T01:35:01;-0.90;99.90
44305;DHT22;30019;50.576;8.568;2023-02-26T01:42:53;-1.00;99.90
44305;DHT22;30019;50.576;8.568;2023-02-26T01:45:28;-1.10;99.90
44305;DHT22;30019;50.576;8.568;2023-02-26T01:50:52;-1.20;99.90
44305;DHT22;30019;50.576;8.568;2023-02-26T01:53:24;-1.30;99.90
44305;DHT22;30019;50.576;8.568;2023-02-26T01:56:02;-1.40;99.90
44305;DHT22;30019;50.576;8.568;2023-02-26T01:58:32;-1.40;99.90
44305;DHT22;30019;50.576;8.568;2023-02-26T02:00:59;-1.30;99.90
44305;DHT22;30019;50.576;8.568;2023-02-26T02:03:27;-1.30;99.90
44305;DHT22;30019;50.576;8.568;2023-02-26T02:05:59;-1.20;99.90
44305;DHT22;30019;50.576;8.568;2023-02-26T02:08:26;-1.10;99.90
44305;DHT22;30019;50.576;8.568;2023-02-26T02:10:53;-1.20;99.90
44305;DHT22;30019;50.576;8.568;2023-02-26T02:18:56;-1.30;99.90
44305;DHT22;30019;50.576;8.568;2023-02-26T02:27:12;-1.20;99.90
44305;DHT22;30019;50.576;8.568;2023-02-26T02:32:46;-1.20;99.90
44305;DHT22;30019;50.576;8.568;2023-02-26T02:40:31;-1.10;99.90
44305;DHT22;30019;50.576;8.568;2023-02-26T02:43:05;-1.00;99.90
44305;DHT22;30019;50.576;8.568;2023-02-26T02:45:49;-1.00;99.90
44305;DHT22;30019;50.576;8.568;2023-02-26T02:50:48;-1.00;99.90
44305;DHT22;30019;50.576;8.568;2023-02-26T02:56:28;-1.00;99.90
44305;DHT22;30019;50.576;8.568;2023-02-26T03:01:52;-1.10;99.90
44305;DHT22;30019;50.576;8.568;2023-02-26T03:04:21;-1.10;99.90
44305;DHT22;30019;50.576;8.568;2023-02-26T03:06:47;-1.10;99.90
44305;DHT22;30019;50.576;8.568;2023-02-26T03:09:14;-1.20;99.90
44305;DHT22;30019;50.576;8.568;2023-02-26T03:11:40;-1.10;99.90
44305;DHT22;30019;50.576;8.568;2023-02-26T03:14:06;-1.00;99.90
44305;DHT22;30019;50.576;8.568;2023-02-26T03:22:22;-1.20;99.90
44305;DHT22;30019;50.576;8.568;2023-02-26T03:25:14;-1.10;99.90
44305;DHT22;30019;50.576;8.568;2023-02-26T03:38:10;-0.80;99.90
44305;DHT22;30019;50.576;8.568;2023-02-26T03:40:45;-0.80;99.90
44305;DHT22;30019;50.576;8.568;2023-02-26T03:46:03;-0.80;99.90
44305;DHT22;30019;50.576;8.568;2023-02-26T03:48:33;-0.80;99.90
44305;DHT22;30019;50.576;8.568;2023-02-26T03:51:04;-0.80;99.90
44305;DHT22;30019;50.576;8.568;2023-02-26T03:53:35;-0.90;99.90
44305;DHT22;30019;50.576;8.568;2023-02-26T03:56:36;-0.90;99.90
44305;DHT22;30019;50.576;8.568;2023-02-26T03:59:03;-0.90;99.90
44305;DHT22;30019;50.576;8.568;2023-02-26T04:01:34;-0.90;99.90
44305;DHT22;30019;50.576;8.568;2023-02-26T04:04:11;-0.90;99.90
44305;DHT22;30019;50.576;8.568;2023-02-26T04:06:37;-0.90;99.90
44305;DHT22;30019;50.576;8.568;2023-02-26T04:09:04;-0.90;99.90
44305;DHT22;30019;50.576;8.568;2023-02-26T04:11:30;-1.00;99.90
44305;DHT22;30019;50.576;8.568;2023-02-26T04:13:56;-1.10;99.90
44305;DHT22;30019;50.576;8.568;2023-02-26T04:16:22;-1.20;99.90
44305;DHT22;30019;50.576;8.568;2023-02-26T04:18:48;-1.10;99.90
44305;DHT22;30019;50.576;8.568;2023-02-26T04:21:18;-1.20;99.90
44305;DHT22;30019;50.576;8.568;2023-02-26T04:23:44;-1.20;99.90
44305;DHT22;30019;50.576;8.568;2023-02-26T04:26:10;-1.20;99.90
44305;DHT22;30019;50.576;8.568;2023-02-26T04:28:37;-1.20;99.90
44305;DHT22;30019;50.576;8.568;2023-02-26T04:31:07;-1.20;99.90
44305;DHT22;30019;50.576;8.568;2023-02-26T04:33:32;-1.20;99.90
44305;DHT22;30019;50.576;8.568;2023-02-26T04:35:59;-1.30;99.90
44305;DHT22;30019;50.576;8.568;2023-02-26T04:38:25;-1.40;99.90
44305;DHT22;30019;50.576;8.568;2023-02-26T04:40:51;-1.40;99.90
44305;DHT22;30019;50.576;8.568;2023-02-26T04:43:17;-1.50;99.90
44305;DHT22;30019;50.576;8.568;2023-02-26T04:45:46;-1.50;99.90
44305;DHT22;30019;50.576;8.568;2023-02-26T04:48:13;-1.50;99.90
44305;DHT22;30019;50.576;8.568;2023-02-26T04:50:40;-1.40;99.90
44305;DHT22;30019;50.576;8.568;2023-02-26T04:53:06;-1.40;99.90
44305;DHT22;30019;50.576;8.568;2023-02-26T04:55:33;-1.30;99.90
44305;DHT22;30019;50.576;8.568;2023-02-26T04:57:58;-1.20;99.90
44305;DHT22;30019;50.576;8.568;2023-02-26T05:00:24;-1.30;99.90
44305;DHT22;30019;50.576;8.568;2023-02-26T05:02:50;-1.30;99.90
44305;DHT22;30019;50.576;8.568;2023-02-26T05:05:16;-1.30;99.90
44305;DHT22;30019;50.576;8.568;2023-02-26T05:07:41;-1.30;99.90
44305;DHT22;30019;50.576;8.568;2023-02-26T05:10:08;-1.20;99.90
44305;DHT22;30019;50.576;8.568;2023-02-26T05:12:33;-1.30;99.90
44305;DHT22;30019;50.576;8.568;2023-02-26T05:14:59;-1.30;99.90
44305;DHT22;30019;50.576;8.568;2023-02-26T05:17:24;-1.20;99.90
44305;DHT22;30019;50.576;8.568;2023-02-26T05:19:50;-1.20;99.90
44305;DHT22;30019;50.576;8.568;2023-02-26T05:22:16;-1.20;99.90
44305;DHT22;30019;50.576;8.568;2023-02-26T05:24:41;-1.20;99.90
44305;DHT22;30019;50.576;8.568;2023-02-26T05:27:08;-1.20;99.90
44305;DHT22;30019;50.576;8.568;2023-02-26T05:29:34;-1.20;99.90
44305;DHT22;30019;50.576;8.568;2023-02-26T05:31:59;-1.20;99.90
44305;DHT22;30019;50.576;8.568;2023-02-26T05:34:25;-1.20;99.90
44305;DHT22;30019;50.576;8.568;2023-02-26T05:36:51;-1.20;99.90
44305;DHT22;30019;50.576;8.568;2023-02-26T05:39:16;-1.20;99.90
44305;DHT22;30019;50.576;8.568;2023-02-26T05:41:42;-1.20;99.90
44305;DHT22;30019;50.576;8.568;2023-02-26T05:44:07;-1.10;99.90
44305;DHT22;30019;50.576;8.568;2023-02-26T05:46:33;-1.20;99.90
44305;DHT22;30019;50.576;8.568;2023-02-26T05:48:59;-1.20;99.90
44305;DHT22;30019;50.576;8.568;2023-02-26T05:51:24;-1.20;99.90
44305;DHT22;30019;50.576;8.568;2023-02-26T05:53:50;-1.20;99.90
44305;DHT22;30019;50.576;8.568;2023-02-26T05:56:15;-1.30;99.90
44305;DHT22;30019;50.576;8.568;2023-02-26T05:58:41;-1.30;99.90
44305;DHT22;30019;50.576;8.568;2023-02-26T06:01:06;-1.30;99.90
44305;DHT22;30019;50.576;8.568;2023-02-26T06:03:32;-1.40;99.90
44305;DHT22;30019;50.576;8.568;2023-02-26T06:05:58;-1.40;99.90
44305;DHT22;30019;50.576;8.568;2023-02-26T06:08:23;-1.50;99.90
44305;DHT22;30019;50.576;8.568;2023-02-26T06:10:50;-1.60;99.90
44305;DHT22;30019;50.576;8.568;2023-02-26T06:13:16;-1.70;99.90
44305;DHT22;30019;50.576;8.568;2023-02-26T06:15:41;-1.70;99.90
44305;DHT22;30019;50.576;8.568;2023-02-26T06:18:07;-1.60;99.90
44305;DHT22;30019;50.576;8.568;2023-02-26T06:20:33;-1.60;99.90
44305;DHT22;30019;50.576;8.568;2023-02-26T06:22:58;-1.60;99.90
44305;DHT22;30019;50.576;8.568;2023-02-26T06:25:24;-1.60;99.90
44305;DHT22;30019;50.576;8.568;2023-02-26T06:27:49;-1.60;99.90
44305;DHT22;30019;50.576;8.568;2023-02-26T06:30:15;-1.50;99.90
44305;DHT22;30019;50.576;8.568;2023-02-26T06:32:42;-1.40;99.90
44305;DHT22;30019;50.576;8.568;2023-02-26T06:35:09;-1.30;99.90
44305;DHT22;30019;50.576;8.568;2023-02-26T06:37:35;-1.30;99.90
44305;DHT22;30019;50.576;8.568;2023-02-26T06:40:01;-1.30;99.90
44305;DHT22;30019;50.576;8.568;2023-02-26T06:42:28;-1.20;99.90
44305;DHT22;30019;50.576;8.568;2023-02-26T06:44:54;-1.20;99.90
44305;DHT22;30019;50.576;8.568;2023-02-26T06:47:21;-1.30;99.90
44305;DHT22;30019;50.576;8.568;2023-02-26T06:49:47;-1.20;99.90
44305;DHT22;30019;50.576;8.568;2023-02-26T06:52:13;-1.20;99.90
44305;DHT22;30019;50.576;8.568;2023-02-26T06:54:39;-1.20;99.90
44305;DHT22;30019;50.576;8.568;2023-02-26T06:57:04;-1.20;99.90
44305;DHT22;30019;50.576;8.568;2023-02-26T06:59:30;-1.20;99.90
44305;DHT22;30019;50.576;8.568;2023-02-26T07:01:55;-1.30;99.90
44305;DHT22;30019;50.576;8.568;2023-02-26T07:04:22;-1.20;99.90
44305;DHT22;30019;50.576;8.568;2023-02-26T07:06:47;-1.20;99.90
44305;DHT22;30019;50.576;8.568;2023-02-26T07:09:13;-1.20;99.90
44305;DHT22;30019;50.576;8.568;2023-02-26T07:11:38;-1.10;99.90
44305;DHT22;30019;50.576;8.568;2023-02-26T07:14:04;-1.10;99.90
44305;DHT22;30019;50.576;8.568;2023-02-26T07:16:30;-1.10;99.90
44305;DHT22;30019;50.576;8.568;2023-02-26T07:18:55;-1.10;99.90
44305;DHT22;30019;50.576;8.568;2023-02-26T07:21:21;-1.00;99.90
44305;DHT22;30019;50.576;8.568;2023-02-26T07:23:47;-1.00;99.90
44305;DHT22;30019;50.576;8.568;2023-02-26T07:26:12;-1.10;99.90
44305;DHT22;30019;50.576;8.568;2023-02-26T07:28:38;-1.00;99.90
44305;DHT22;30019;50.576;8.568;2023-02-26T07:31:03;-1.00;99.90
44305;DHT22;30019;50.576;8.568;2023-02-26T07:33:29;-0.90;99.90
44305;DHT22;30019;50.576;8.568;2023-02-26T07:35:56;-0.80;99.90
44305;DHT22;30019;50.576;8.568;2023-02-26T07:38:22;-0.80;99.90
44305;DHT22;30019;50.576;8.568;2023-02-26T07:40:48;-0.70;99.90
44305;DHT22;30019;50.576;8.568;2023-02-26T07:43:13;-0.80;99.90
44305;DHT22;30019;50.576;8.568;2023-02-26T07:45:39;-0.60;99.90
44305;DHT22;30019;50.576;8.568;2023-02-26T07:48:04;-0.60;99.90
44305;DHT22;30019;50.576;8.568;2023-02-26T07:50:30;-0.60;99.90
44305;DHT22;30019;50.576;8.568;2023-02-26T07:52:56;-0.50;99.90
44305;DHT22;30019;50.576;8.568;2023-02-26T07:55:21;-0.50;99.90
44305;DHT22;30019;50.576;8.568;2023-02-26T07:57:47;-0.40;99.90
44305;DHT22;30019;50.576;8.568;2023-02-26T08:00:33;-0.30;99.90
44305;DHT22;30019;50.576;8.568;2023-02-26T08:02:58;-0.20;99.90
44305;DHT22;30019;50.576;8.568;2023-02-26T08:05:24;-0.10;99.90
44305;DHT22;30019;50.576;8.568;2023-02-26T08:07:49;0.00;99.90
44305;DHT22;30019;50.576;8.568;2023-02-26T08:10:15;0.00;99.90
44305;DHT22;30019;50.576;8.568;2023-02-26T08:12:41;0.00;99.90
44305;DHT22;30019;50.576;8.568;2023-02-26T08:15:07;0.10;99.90
44305;DHT22;30019;50.576;8.568;2023-02-26T08:17:32;0.10;99.90
44305;DHT22;30019;50.576;8.568;2023-02-26T08:19:58;0.10;99.90
44305;DHT22;30019;50.576;8.568;2023-02-26T08:22:24;0.10;99.90
44305;DHT22;30019;50.576;8.568;2023-02-26T08:24:49;0.10;99.90
44305;DHT22;30019;50.576;8.568;2023-02-26T08:27:15;0.10;99.90
44305;DHT22;30019;50.576;8.568;2023-02-26T08:29:40;0.20;99.90
44305;DHT22;30019;50.576;8.568;2023-02-26T08:32:07;0.20;99.90
44305;DHT22;30019;50.576;8.568;2023-02-26T08:34:33;0.20;99.90
44305;DHT22;30019;50.576;8.568;2023-02-26T08:36:59;0.30;99.90
44305;DHT22;30019;50.576;8.568;2023-02-26T08:39:24;0.30;99.90
44305;DHT22;30019;50.576;8.568;2023-02-26T08:41:50;0.30;99.90
44305;DHT22;30019;50.576;8.568;2023-02-26T08:44:15;0.40;99.90
44305;DHT22;30019;50.576;8.568;2023-02-26T08:46:41;0.40;99.90
44305;DHT22;30019;50.576;8.568;2023-02-26T08:49:07;0.50;99.90
44305;DHT22;30019;50.576;8.568;2023-02-26T08:51:32;0.70;99.90
44305;DHT22;30019;50.576;8.568;2023-02-26T08:53:58;0.80;99.90
44305;DHT22;30019;50.576;8.568;2023-02-26T08:56:23;0.90;99.90
44305;DHT22;30019;50.576;8.568;2023-02-26T08:58:49;1.00;99.90
44305;DHT22;30019;50.576;8.568;2023-02-26T09:01:15;1.20;99.90
44305;DHT22;30019;50.576;8.568;2023-02-26T09:03:40;1.40;99.90
44305;DHT22;30019;50.576;8.568;2023-02-26T09:06:06;1.60;99.90
44305;DHT22;30019;50.576;8.568;2023-02-26T09:08:32;1.60;99.90
44305;DHT22;30019;50.576;8.568;2023-02-26T09:11:01;1.60;99.90
44305;DHT22;30019;50.576;8.568;2023-02-26T09:13:28;1.80;99.90
44305;DHT22;30019;50.576;8.568;2023-02-26T09:15:53;1.60;99.90
44305;DHT22;30019;50.576;8.568;2023-02-26T09:18:19;1.70;99.90
44305;DHT22;30019;50.576;8.568;2023-02-26T09:20:45;1.80;99.90
44305;DHT22;30019;50.576;8.568;2023-02-26T09:23:11;1.80;99.90
44305;DHT22;30019;50.576;8.568;2023-02-26T09:25:37;1.80;99.90
44305;DHT22;30019;50.576;8.568;2023-02-26T09:28:03;1.80;99.90
44305;DHT22;30019;50.576;8.568;2023-02-26T09:30:29;1.60;99.90
44305;DHT22;30019;50.576;8.568;2023-02-26T09:32:55;1.50;99.90
44305;DHT22;30019;50.576;8.568;2023-02-26T09:35:20;1.60;99.90
44305;DHT22;30019;50.576;8.568;2023-02-26T09:37:46;1.70;99.90
44305;DHT22;30019;50.576;8.568;2023-02-26T09:40:47;1.90;99.90
44305;DHT22;30019;50.576;8.568;2023-02-26T09:43:40;2.40;99.90
44305;DHT22;30019;50.576;8.568;2023-02-26T09:48:59;2.50;99.90
44305;DHT22;30019;50.576;8.568;2023-02-26T09:51:28;2.60;99.90
44305;DHT22;30019;50.576;8.568;2023-02-26T09:53:55;2.50;99.90
44305;DHT22;30019;50.576;8.568;2023-02-26T09:56:25;2.30;99.90
44305;DHT22;30019;50.576;8.568;2023-02-26T09:58:52;2.10;99.90
44305;DHT22;30019;50.576;8.568;2023-02-26T10:01:30;2.00;99.90
44305;DHT22;30019;50.576;8.568;2023-02-26T10:07:09;2.00;99.90
44305;DHT22;30019;50.576;8.568;2023-02-26T10:12:18;1.60;99.90
44305;DHT22;30019;50.576;8.568;2023-02-26T10:15:02;1.70;99.90
44305;DHT22;30019;50.576;8.568;2023-02-26T10:17:33;1.70;99.90
44305;DHT22;30019;50.576;8.568;2023-02-26T10:20:08;1.60;99.90
44305;DHT22;30019;50.576;8.568;2023-02-26T10:22:50;1.70;99.90
44305;DHT22;30019;50.576;8.568;2023-02-26T10:25:24;1.70;99.90
44305;DHT22;30019;50.576;8.568;2023-02-26T10:27:59;1.70;99.90
44305;DHT22;30019;50.576;8.568;2023-02-26T10:33:02;1.70;99.90
44305;DHT22;30019;50.576;8.568;2023-02-26T10:35:36;1.70;99.90
44305;DHT22;30019;50.576;8.568;2023-02-26T10:38:15;1.70;99.90
44305;DHT22;30019;50.576;8.568;2023-02-26T10:40:49;1.60;99.90
44305;DHT22;30019;50.576;8.568;2023-02-26T10:46:08;1.70;99.90
44305;DHT22;30019;50.576;8.568;2023-02-26T10:49:16;1.80;99.90
44305;DHT22;30019;50.576;8.568;2023-02-26T10:51:44;1.70;99.90
44305;DHT22;30019;50.576;8.568;2023-02-26T10:56:39;1.90;99.90
44305;DHT22;30019;50.576;8.568;2023-02-26T10:59:05;1.80;99.90
44305;DHT22;30019;50.576;8.568;2023-02-26T11:01:31;1.70;99.90
44305;DHT22;30019;50.576;8.568;2023-02-26T11:04:04;1.80;99.90
44305;DHT22;30019;50.576;8.568;2023-02-26T11:06:33;1.90;99.90
44305;DHT22;30019;50.576;8.568;2023-02-26T11:09:00;1.90;99.90
44305;DHT22;30019;50.576;8.568;2023-02-26T11:11:45;1.70;99.90
44305;DHT22;30019;50.576;8.568;2023-02-26T11:14:11;1.80;99.90
44305;DHT22;30019;50.576;8.568;2023-02-26T11:16:57;1.80;99.90
44305;DHT22;30019;50.576;8.568;2023-02-26T11:19:34;1.90;99.90
44305;DHT22;30019;50.576;8.568;2023-02-26T11:22:01;1.80;99.90
44305;DHT22;30019;50.576;8.568;2023-02-26T11:24:34;1.90;99.90
44305;DHT22;30019;50.576;8.568;2023-02-26T11:27:02;2.00;99.90
44305;DHT22;30019;50.576;8.568;2023-02-26T11:29:35;2.10;99.90
44305;DHT22;30019;50.576;8.568;2023-02-26T11:32:03;2.20;99.90
44305;DHT22;30019;50.576;8.568;2023-02-26T11:34:29;2.00;99.90
44305;DHT22;30019;50.576;8.568;2023-02-26T11:36:58;2.30;99.90
44305;DHT22;30019;50.576;8.568;2023-02-26T11:39:27;2.70;99.90
44305;DHT22;30019;50.576;8.568;2023-02-26T11:41:56;2.90;99.90
44305;DHT22;30019;50.576;8.568;2023-02-26T11:46:57;2.50;99.90
44305;DHT22;30019;50.576;8.568;2023-02-26T11:49:27;2.50;99.90
44305;DHT22;30019;50.576;8.568;2023-02-26T11:52:18;2.70;99.90
44305;DHT22;30019;50.576;8.568;2023-02-26T11:54:45;3.10;99.90
44305;DHT22;30019;50.576;8.568;2023-02-26T11:57:17;3.60;99.90
44305;DHT22;30019;50.576;8.568;2023-02-26T11:59:47;3.40;99.90
44305;DHT22;30019;50.576;8.568;2023-02-26T12:02:14;3.40;99.90
44305;DHT22;30019;50.576;8.568;2023-02-26T12:04:43;3.20;99.90
44305;DHT22;30019;50.576;8.568;2023-02-26T12:07:13;3.00;99.90
44305;DHT22;30019;50.576;8.568;2023-02-26T12:09:40;2.90;99.90
44305;DHT22;30019;50.576;8.568;2023-02-26T12:15:16;2.20;99.90
44305;DHT22;30019;50.576;8.568;2023-02-26T12:18:20;2.20;99.90
44305;DHT22;30019;50.576;8.568;2023-02-26T12:24:01;2.30;99.90
44305;DHT22;30019;50.576;8.568;2023-02-26T12:26:34;2.40;99.90
44305;DHT22;30019;50.576;8.568;2023-02-26T12:42:50;2.40;99.90
44305;DHT22;30019;50.576;8.568;2023-02-26T12:51:14;2.70;99.90
44305;DHT22;30019;50.576;8.568;2023-02-26T12:56:50;2.80;99.90
44305;DHT22;30019;50.576;8.568;2023-02-26T12:59:22;2.70;99.90
44305;DHT22;30019;50.576;8.568;2023-02-26T13:02:02;2.70;99.90
44305;DHT22;30019;50.576;8.568;2023-02-26T13:04:58;2.70;99.90
44305;DHT22;30019;50.576;8.568;2023-02-26T13:10:44;2.40;99.90
44305;DHT22;30019;50.576;8.568;2023-02-26T13:21:30;2.40;99.90
44305;DHT22;30019;50.576;8.568;2023-02-26T13:24:04;3.50;99.90
44305;DHT22;30019;50.576;8.568;2023-02-26T13:26:32;4.10;99.90
44305;DHT22;30019;50.576;8.568;2023-02-26T13:29:26;4.70;99.90
44305;DHT22;30019;50.576;8.568;2023-02-26T13:32:03;5.00;98.90
44305;DHT22;30019;50.576;8.568;2023-02-26T13:34:57;5.10;98.60
44305;DHT22;30019;50.576;8.568;2023-02-26T13:37:44;5.10;99.00
44305;DHT22;30019;50.576;8.568;2023-02-26T13:45:43;4.10;99.90
44305;DHT22;30019;50.576;8.568;2023-02-26T13:48:50;3.80;99.90
44305;DHT22;30019;50.576;8.568;2023-02-26T13:51:47;3.50;99.90
44305;DHT22;30019;50.576;8.568;2023-02-26T14:06:58;2.90;99.90
44305;DHT22;30019;50.576;8.568;2023-02-26T14:12:00;2.70;99.90
44305;DHT22;30019;50.576;8.568;2023-02-26T14:19:36;3.10;99.90
44305;DHT22;30019;50.576;8.568;2023-02-26T14:22:23;2.90;99.90
44305;DHT22;30019;50.576;8.568;2023-02-26T14:25:38;2.80;99.90
44305;DHT22;30019;50.576;8.568;2023-02-26T14:33:29;2.80;99.90
44305;DHT22;30019;50.576;8.568;2023-02-26T14:35:56;3.30;99.90
44305;DHT22;30019;50.576;8.568;2023-02-26T14:38:36;4.50;99.90
44305;DHT22;30019;50.576;8.568;2023-02-26T14:41:24;4.90;99.10
44305;DHT22;30019;50.576;8.568;2023-02-26T14:44:03;4.40;98.90
44305;DHT22;30019;50.576;8.568;2023-02-26T14:46:33;3.70;99.80
44305;DHT22;30019;50.576;8.568;2023-02-26T14:48:59;3.20;99.90
44305;DHT22;30019;50.576;8.568;2023-02-26T14:52:07;3.00;99.90
44305;DHT22;30019;50.576;8.568;2023-02-26T15:00:02;2.60;99.90
44305;DHT22;30019;50.576;8.568;2023-02-26T15:08:34;2.70;99.90
44305;DHT22;30019;50.576;8.568;2023-02-26T15:14:16;3.10;99.80
44305;DHT22;30019;50.576;8.568;2023-02-26T15:17:25;3.20;99.90
44305;DHT22;30019;50.576;8.568;2023-02-26T15:23:19;2.80;99.90
44305;DHT22;30019;50.576;8.568;2023-02-26T15:25:48;2.70;99.90
44305;DHT22;30019;50.576;8.568;2023-02-26T15:28:27;2.50;99.90
44305;DHT22;30019;50.576;8.568;2023-02-26T15:30:54;2.60;99.90
44305;DHT22;30019;50.576;8.568;2023-02-26T15:33:23;2.60;99.50
44305;DHT22;30019;50.576;8.568;2023-02-26T15:35:50;2.70;99.30
44305;DHT22;30019;50.576;8.568;2023-02-26T15:38:17;2.80;99.60
44305;DHT22;30019;50.576;8.568;2023-02-26T15:40:43;2.80;99.60
44305;DHT22;30019;50.576;8.568;2023-02-26T15:43:16;2.90;99.00
44305;DHT22;30019;50.576;8.568;2023-02-26T15:45:46;2.90;99.00
44305;DHT22;30019;50.576;8.568;2023-02-26T15:48:13;3.10;99.90
44305;DHT22;30019;50.576;8.568;2023-02-26T15:50:42;3.20;99.90
44305;DHT22;30019;50.576;8.568;2023-02-26T15:53:12;3.20;99.40
44305;DHT22;30019;50.576;8.568;2023-02-26T15:55:49;3.00;99.60
44305;DHT22;30019;50.576;8.568;2023-02-26T15:58:21;3.00;99.90
44305;DHT22;30019;50.576;8.568;2023-02-26T16:00:52;2.90;99.70
44305;DHT22;30019;50.576;8.568;2023-02-26T16:03:25;2.90;99.90
44305;DHT22;30019;50.576;8.568;2023-02-26T16:05:54;2.70;99.90
44305;DHT22;30019;50.576;8.568;2023-02-26T16:08:19;2.60;99.90
44305;DHT22;30019;50.576;8.568;2023-02-26T16:10:45;2.60;99.70
44305;DHT22;30019;50.576;8.568;2023-02-26T16:13:16;2.60;99.30
44305;DHT22;30019;50.576;8.568;2023-02-26T16:15:46;2.70;99.90
44305;DHT22;30019;50.576;8.568;2023-02-26T16:18:15;2.70;99.90
44305;DHT22;30019;50.576;8.568;2023-02-26T16:20:44;2.60;99.20
44305;DHT22;30019;50.576;8.568;2023-02-26T16:23:23;2.50;99.50
44305;DHT22;30019;50.576;8.568;2023-02-26T16:25:57;2.40;99.90
44305;DHT22;30019;50.576;8.568;2023-02-26T16:28:31;2.30;99.30
44305;DHT22;30019;50.576;8.568;2023-02-26T16:30:59;2.30;99.90
44305;DHT22;30019;50.576;8.568;2023-02-26T16:33:26;2.30;99.80
44305;DHT22;30019;50.576;8.568;2023-02-26T16:36:13;2.30;99.30
44305;DHT22;30019;50.576;8.568;2023-02-26T16:38:56;2.20;99.80
44305;DHT22;30019;50.576;8.568;2023-02-26T16:41:23;2.20;99.90
44305;DHT22;30019;50.576;8.568;2023-02-26T16:43:55;2.10;99.90
44305;DHT22;30019;50.576;8.568;2023-02-26T16:46:40;2.10;99.90
44305;DHT22;30019;50.576;8.568;2023-02-26T16:49:29;2.00;99.90
44305;DHT22;30019;50.576;8.568;2023-02-26T16:51:56;1.90;99.90
44305;DHT22;30019;50.576;8.568;2023-02-26T16:54:25;1.80;99.90
44305;DHT22;30019;50.576;8.568;2023-02-26T16:57:16;1.80;99.90
44305;DHT22;30019;50.576;8.568;2023-02-26T16:59:47;1.70;99.90
44305;DHT22;30019;50.576;8.568;2023-02-26T17:02:25;1.60;99.90
44305;DHT22;30019;50.576;8.568;2023-02-26T17:05:01;1.60;99.90
44305;DHT22;30019;50.576;8.568;2023-02-26T17:09:58;1.50;99.90
44305;DHT22;30019;50.576;8.568;2023-02-26T17:12:48;1.40;99.90
44305;DHT22;30019;50.576;8.568;2023-02-26T17:15:30;1.40;99.90
44305;DHT22;30019;50.576;8.568;2023-02-26T17:17:56;1.30;99.90
44305;DHT22;30019;50.576;8.568;2023-02-26T17:20:26;1.20;99.90
44305;DHT22;30019;50.576;8.568;2023-02-26T17:22:54;1.20;99.90
44305;DHT22;30019;50.576;8.568;2023-02-26T17:25:20;1.20;99.90
44305;DHT22;30019;50.576;8.568;2023-02-26T17:27:48;1.10;99.90
44305;DHT22;30019;50.576;8.568;2023-02-26T17:30:16;1.10;99.90
44305;DHT22;30019;50.576;8.568;2023-02-26T17:32:43;1.10;99.90
44305;DHT22;30019;50.576;8.568;2023-02-26T17:35:17;1.00;99.90
44305;DHT22;30019;50.576;8.568;2023-02-26T17:37:43;1.00;99.90
44305;DHT22;30019;50.576;8.568;2023-02-26T17:42:47;0.90;99.90
44305;DHT22;30019;50.576;8.568;2023-02-26T17:45:13;0.80;99.90
44305;DHT22;30019;50.576;8.568;2023-02-26T17:47:40;0.60;99.90
44305;DHT22;30019;50.576;8.568;2023-02-26T17:50:21;0.50;99.90
44305;DHT22;30019;50.576;8.568;2023-02-26T17:52:47;0.40;99.90
44305;DHT22;30019;50.576;8.568;2023-02-26T17:55:13;0.30;99.90
44305;DHT22;30019;50.576;8.568;2023-02-26T17:57:39;0.10;99.90
44305;DHT22;30019;50.576;8.568;2023-02-26T18:00:05;0.00;99.90
44305;DHT22;30019;50.576;8.568;2023-02-26T18:02:31;-0.10;99.90
44305;DHT22;30019;50.576;8.568;2023-02-26T18:04:56;-0.20;99.90
44305;DHT22;30019;50.576;8.568;2023-02-26T18:07:23;-0.20;99.90
44305;DHT22;30019;50.576;8.568;2023-02-26T18:09:49;-0.30;99.90
44305;DHT22;30019;50.576;8.568;2023-02-26T18:12:17;-0.40;99.90
44305;DHT22;30019;50.576;8.568;2023-02-26T18:14:43;-0.50;99.90
44305;DHT22;30019;50.576;8.568;2023-02-26T18:17:27;-0.50;99.90
44305;DHT22;30019;50.576;8.568;2023-02-26T18:19:54;-0.50;99.90
44305;DHT22;30019;50.576;8.568;2023-02-26T18:22:20;-0.40;99.90
44305;DHT22;30019;50.576;8.568;2023-02-26T18:24:50;-0.40;99.90
44305;DHT22;30019;50.576;8.568;2023-02-26T18:27:18;-0.40;99.90
44305;DHT22;30019;50.576;8.568;2023-02-26T18:29:44;-0.30;99.90
44305;DHT22;30019;50.576;8.568;2023-02-26T18:32:15;-0.30;99.90
44305;DHT22;30019;50.576;8.568;2023-02-26T18:34:41;-0.40;99.90
44305;DHT22;30019;50.576;8.568;2023-02-26T18:37:11;-0.40;99.90
44305;DHT22;30019;50.576;8.568;2023-02-26T18:39:38;-0.40;99.90
44305;DHT22;30019;50.576;8.568;2023-02-26T18:42:03;-0.30;99.90
44305;DHT22;30019;50.576;8.568;2023-02-26T18:44:29;-0.20;99.90
44305;DHT22;30019;50.576;8.568;2023-02-26T18:46:58;-0.20;99.90
44305;DHT22;30019;50.576;8.568;2023-02-26T18:49:23;-0.20;99.90
44305;DHT22;30019;50.576;8.568;2023-02-26T18:51:49;-0.30;99.90
44305;DHT22;30019;50.576;8.568;2023-02-26T18:54:14;-0.40;99.90
44305;DHT22;30019;50.576;8.568;2023-02-26T18:56:40;-0.50;99.90